Limavady, United Kingdom
Current Conditions -  °F | °C
As of 5:50 PM on Thursday 23 Oct 2014 (Local Time) from EGAE Reporting Station
Scattered Clouds Scattered Clouds  
Wind Chill: 55°   Ceiling: Unl
Heat Index: 55°   Visibility: 6mi
Dew Point: 52°   Wind: 17mph
Humidity: 88%   Direction: 230°SW
Pressure: 29.68"   Gusts: NA
Location:  55.05°N, 6.95°W
Report Text: EGAE 231650Z 23015KT 9999 FEW009 SCT025 13/11 Q1005
Loading
Personal Weather Stations






























Interactive Weather Map
Tropical Storm Tracking
New forecast layout! Learn more

10-Day Weather Forecast

Advertisements
Track Severe Weather on mobile